^^
Station Historical Data
Daily Summary for April 23, 2017 Units:  English    Metric   Both
« Previous Day
Next Day »
Daily Weekly Monthly Yearly Custom
  High: Low: Average:
Temperature: 66.0 °F 37.8 °F 52.9 °F
Dew Point: 43.6 °F 33.7 °F 38.2 °F
Humidity: 87 % 37 % 60 %
Wind Speed: 5.2 mph 0.0 mph 0.4 mph
Wind Gust: 9.2 mph - -
Wind:- - SE
Pressure: 30.16 in 30.06 in -
Precipitation: 0.00 in    
Historical Graphs
 
 
Tabular Data for April 23, 2017
Time Temperature Dew Point Pressure Wind Wind Speed Wind Gust Humidity Rainfall Rate (Hourly) solar Conditions
00:05 45.6 °F 36.7 °F 30.06 in Calm     71 % 0.00 in 0.0 W/m2 RA
00:10 45.4 °F 36.6 °F 30.07 in Calm   2.0 mph 71 % 0.00 in 0.0 W/m2 CLR
00:15 45.3 °F 36.4 °F 30.07 in NNW 0.7 mph 3.5 mph 71 % 0.00 in 0.0 W/m2 CLR
00:20 45.2 °F 36.7 °F 30.08 in Calm     72 % 0.00 in 0.0 W/m2 CLR
00:25 45.2 °F 36.7 °F 30.07 in Calm   8.0 mph 72 % 0.00 in 0.0 W/m2 CLR
00:30 45.3 °F 36.8 °F 30.08 in Calm     72 % 0.00 in 0.0 W/m2 CLR
00:35 45.4 °F 36.5 °F 30.08 in North 1.0 mph 6.0 mph 71 % 0.00 in 0.0 W/m2 CLR
00:40 45.3 °F 36.4 °F 30.07 in NNW 1.0 mph 4.6 mph 71 % 0.00 in 0.0 W/m2 CLR
00:45 45.2 °F 36.4 °F 30.07 in Calm     71 % 0.00 in 0.0 W/m2 CLR
00:50 45.2 °F 36.4 °F 30.08 in North 1.5 mph 7.0 mph 71 % 0.00 in 0.0 W/m2 CLR
00:55 45.2 °F 36.4 °F 30.08 in Calm     71 % 0.00 in 0.0 W/m2 CLR
01:05 45.1 °F 36.3 °F 30.08 in NNW 0.7 mph   71 % 0.00 in 0.0 W/m2 CLR
01:10 45.0 °F 36.1 °F 30.08 in Calm   2.0 mph 71 % 0.00 in 0.0 W/m2 CLR
01:15 44.9 °F 36.1 °F 30.07 in NNW 0.4 mph 1.2 mph 71 % 0.00 in 0.0 W/m2 CLR
01:20 44.8 °F 36.0 °F 30.07 in North 0.1 mph 3.5 mph 71 % 0.00 in 0.0 W/m2 CLR
01:25 44.8 °F 36.3 °F 30.07 in NNW 2.0 mph 6.0 mph 72 % 0.00 in 0.0 W/m2 CLR
01:30 44.8 °F 36.3 °F 30.07 in NNW 1.3 mph 3.5 mph 72 % 0.00 in 0.0 W/m2 CLR
01:35 44.7 °F 36.2 °F 30.07 in NNW 1.0 mph 4.6 mph 72 % 0.00 in 0.0 W/m2 CLR
01:40 44.6 °F 36.1 °F 30.07 in Calm     72 % 0.00 in 0.0 W/m2 CLR
01:45 44.5 °F 36.0 °F 30.08 in Calm     72 % 0.00 in 0.0 W/m2 CLR
01:50 44.5 °F 36.0 °F 30.08 in Calm     72 % 0.00 in 0.0 W/m2 CLR
01:55 44.5 °F 36.0 °F 30.08 in NNW 0.1 mph 1.2 mph 72 % 0.00 in 0.0 W/m2 CLR
02:00 44.5 °F 36.0 °F 30.09 in Calm     72 % 0.00 in 0.0 W/m2 CLR
02:05 44.4 °F 35.9 °F 30.08 in Calm     72 % 0.00 in 0.0 W/m2 CLR
02:10 44.2 °F 35.7 °F 30.07 in Calm     72 % 0.00 in 0.0 W/m2 CLR
02:15 44.3 °F 36.2 °F 30.08 in Calm     73 % 0.00 in 0.0 W/m2 CLR
02:20 44.3 °F 36.2 °F 30.08 in Calm     73 % 0.00 in 0.0 W/m2 CLR
02:25 44.3 °F 36.2 °F 30.08 in Calm     73 % 0.00 in 0.0 W/m2 CLR
02:30 44.3 °F 36.2 °F 30.07 in Calm     73 % 0.00 in 0.0 W/m2 CLR
02:35 44.2 °F 36.1 °F 30.07 in Calm     73 % 0.00 in 0.0 W/m2 CLR
02:40 44.0 °F 35.9 °F 30.07 in Calm     73 % 0.00 in 0.0 W/m2 CLR
02:41 44.0 °F 35.9 °F 30.07 in Calm     73 % 0.00 in 0.0 W/m2 CLR
02:46 43.9 °F 35.8 °F 30.08 in Calm     73 % 0.00 in 0.0 W/m2 CLR
02:51 43.8 °F 36.0 °F 30.07 in Calm     74 % 0.00 in 0.0 W/m2 CLR
02:56 43.9 °F 36.1 °F 30.07 in Calm     74 % 0.00 in 0.0 W/m2 CLR
02:57 43.9 °F 36.1 °F 30.07 in Calm     74 % 0.00 in 0.0 W/m2 CLR
03:02 43.9 °F 36.1 °F 30.07 in Calm     74 % 0.00 in 0.0 W/m2 CLR
03:07 43.8 °F 36.0 °F 30.06 in Calm     74 % 0.00 in 0.0 W/m2 CLR
03:12 43.8 °F 36.0 °F 30.07 in NNE 1.4 mph 2.3 mph 74 % 0.00 in 0.0 W/m2 CLR
03:17 43.8 °F 36.0 °F 30.08 in Calm     74 % 0.00 in 0.0 W/m2 CLR
03:23 43.8 °F 36.0 °F 30.08 in Calm     74 % 0.00 in 0.0 W/m2 CLR
03:28 43.8 °F 36.0 °F 30.08 in Calm   1.2 mph 74 % 0.00 in 0.0 W/m2 CLR
03:33 43.7 °F 36.0 °F 30.08 in Calm     74 % 0.00 in 0.0 W/m2 CLR
03:38 43.6 °F 35.9 °F 30.08 in NNE 0.2 mph 2.3 mph 74 % 0.00 in 0.0 W/m2 CLR
03:43 43.6 °F 35.9 °F 30.08 in Calm     74 % 0.00 in 0.0 W/m2 CLR
03:48 43.6 °F 35.9 °F 30.08 in Calm     74 % 0.00 in 0.0 W/m2 CLR
03:53 43.4 °F 35.7 °F 30.08 in Calm     74 % 0.00 in 0.0 W/m2 CLR
03:58 43.5 °F 35.8 °F 30.08 in Calm     74 % 0.00 in 0.0 W/m2 CLR
04:03 43.5 °F 35.8 °F 30.08 in Calm     74 % 0.00 in 0.0 W/m2 CLR
04:08 43.3 °F 35.6 °F 30.08 in Calm     74 % 0.00 in 0.0 W/m2 CLR
04:11 43.2 °F 35.5 °F 30.08 in Calm     74 % 0.00 in 0.0 W/m2 CLR
04:16 43.0 °F 35.3 °F 30.08 in Calm     74 % 0.00 in 0.0 W/m2 CLR
04:21 42.8 °F 35.4 °F 30.08 in Calm     75 % 0.00 in 0.0 W/m2 CLR
04:26 42.7 °F 35.3 °F 30.08 in Calm     75 % 0.00 in 0.0 W/m2 CLR
04:31 42.5 °F 35.1 °F 30.08 in Calm     75 % 0.00 in 0.0 W/m2 CLR
04:36 42.5 °F 35.1 °F 30.09 in Calm     75 % 0.00 in 0.0 W/m2 CLR
04:41 42.4 °F 35.0 °F 30.09 in Calm     75 % 0.00 in 0.0 W/m2 CLR
04:47 42.2 °F 34.8 °F 30.09 in Calm     75 % 0.00 in 0.0 W/m2 CLR
04:52 41.9 °F 34.9 °F 30.09 in Calm     76 % 0.00 in 0.0 W/m2 CLR
04:57 41.5 °F 34.5 °F 30.09 in Calm     76 % 0.00 in 0.0 W/m2 CLR
05:02 41.3 °F 34.6 °F 30.09 in Calm     77 % 0.00 in 0.0 W/m2 CLR
05:07 40.9 °F 34.6 °F 30.09 in Calm     78 % 0.00 in 0.0 W/m2 CLR
05:12 40.5 °F 34.5 °F 30.09 in Calm     79 % 0.00 in 0.0 W/m2 CLR
05:17 39.9 °F 34.2 °F 30.09 in Calm     80 % 0.00 in 0.0 W/m2 CLR
05:22 39.7 °F 34.3 °F 30.10 in Calm     81 % 0.00 in 0.0 W/m2 CLR
05:27 39.4 °F 34.4 °F 30.10 in Calm     82 % 0.00 in 0.0 W/m2 CLR
05:32 39.3 °F 34.3 °F 30.10 in Calm     82 % 0.00 in 0.0 W/m2 CLR
05:37 39.3 °F 34.6 °F 30.10 in Calm     83 % 0.00 in 0.0 W/m2 CLR
05:42 39.2 °F 34.5 °F 30.10 in Calm     83 % 0.00 in 0.0 W/m2 CLR
05:47 38.9 °F 34.2 °F 30.10 in Calm     83 % 0.00 in 0.0 W/m2 CLR
05:52 38.8 °F 34.4 °F 30.10 in Calm     84 % 0.00 in 0.0 W/m2 CLR
05:57 38.9 °F 34.5 °F 30.10 in Calm     84 % 0.00 in 0.0 W/m2 CLR
06:02 39.0 °F 34.6 °F 30.10 in Calm     84 % 0.00 in 0.0 W/m2 CLR
06:07 39.3 °F 34.9 °F 30.10 in Calm     84 % 0.00 in 0.0 W/m2 CLR
06:12 39.1 °F 34.4 °F 30.11 in Calm     83 % 0.00 in 0.0 W/m2 CLR
06:17 38.9 °F 34.5 °F 30.11 in Calm     84 % 0.00 in 5.0 W/m2 CLR
06:22 38.6 °F 34.2 °F 30.11 in Calm     84 % 0.00 in 7.0 W/m2 CLR
06:27 38.5 °F 34.1 °F 30.11 in Calm     84 % 0.00 in 11.0 W/m2 CLR
06:32 38.3 °F 33.9 °F 30.12 in Calm     84 % 0.00 in 12.0 W/m2 CLR
06:37 37.8 °F 33.7 °F 30.12 in Calm     85 % 0.00 in 14.0 W/m2 CLR
06:42 37.8 °F 34.0 °F 30.12 in Calm     86 % 0.00 in 16.0 W/m2 CLR
06:47 38.0 °F 34.2 °F 30.12 in Calm     86 % 0.00 in 18.0 W/m2 CLR
06:52 38.1 °F 34.3 °F 30.13 in Calm     86 % 0.00 in 19.0 W/m2 CLR
06:57 38.1 °F 34.3 °F 30.13 in Calm     86 % 0.00 in 21.0 W/m2 BKN
07:02 38.0 °F 34.2 °F 30.13 in Calm     86 % 0.00 in 23.0 W/m2 BKN
07:07 38.1 °F 34.6 °F 30.14 in Calm     87 % 0.00 in 33.0 W/m2 BKN
07:12 38.5 °F 35.0 °F 30.14 in Calm     87 % 0.00 in 46.0 W/m2 BKN
07:17 39.2 °F 35.7 °F 30.14 in Calm     87 % 0.00 in 49.0 W/m2 BKN
07:22 40.0 °F 36.2 °F 30.14 in Calm     86 % 0.00 in 65.0 W/m2 SCT
07:27 40.5 °F 36.3 °F 30.14 in Calm     85 % 0.00 in 100.0 W/m2 FEW
07:32 40.9 °F 36.4 °F 30.14 in Calm     84 % 0.00 in 76.0 W/m2 BKN
07:38 41.4 °F 36.6 °F 30.15 in Calm     83 % 0.00 in 77.0 W/m2 BKN
07:39 41.6 °F 36.5 °F 30.15 in Calm     82 % 0.00 in 102.0 W/m2 BKN
07:44 42.1 °F 36.7 °F 30.15 in Calm     81 % 0.00 in 67.0 W/m2 BKN
07:49 42.5 °F 36.4 °F 30.15 in Calm     79 % 0.00 in 77.0 W/m2 BKN
07:54 43.0 °F 36.6 °F 30.15 in Calm     78 % 0.00 in 171.0 W/m2 FEW
07:59 43.4 °F 36.7 °F 30.15 in Calm     77 % 0.00 in 70.0 W/m2 BKN
08:04 43.7 °F 36.6 °F 30.15 in Calm     76 % 0.00 in 144.0 W/m2 SCT
08:05 43.9 °F 37.2 °F 30.15 in Calm     77 % 0.00 in 185.0 W/m2 SCT
08:10 44.3 °F 36.9 °F 30.16 in Calm     75 % 0.00 in 302.0 W/m2 CLR
08:15 45.0 °F 37.6 °F 30.16 in Calm     75 % 0.00 in 338.0 W/m2 CLR
08:20 45.6 °F 37.8 °F 30.16 in Calm     74 % 0.00 in 397.0 W/m2 CLR
08:25 46.0 °F 37.5 °F 30.16 in Calm   2.3 mph 72 % 0.00 in 417.0 W/m2 CLR
08:30 46.4 °F 37.9 °F 30.16 in NNE 0.1 mph 2.3 mph 72 % 0.00 in 434.0 W/m2 CLR
08:35 46.6 °F 37.7 °F 30.16 in NNE 0.3 mph   71 % 0.00 in 454.0 W/m2 CLR
08:40 47.4 °F 38.5 °F 30.16 in NNE 1.2 mph 3.5 mph 71 % 0.00 in 471.0 W/m2 CLR
08:45 47.7 °F 38.4 °F 30.16 in NNE 0.7 mph 3.5 mph 70 % 0.00 in 490.0 W/m2 CLR
08:50 47.7 °F 38.0 °F 30.15 in NNE 0.4 mph 3.5 mph 69 % 0.00 in 506.0 W/m2 CLR
08:55 47.9 °F 38.2 °F 30.16 in Calm   2.3 mph 69 % 0.00 in 524.0 W/m2 CLR
09:00 48.3 °F 39.0 °F 30.15 in NNE 1.6 mph 4.6 mph 70 % 0.00 in 541.0 W/m2 CLR
09:05 48.6 °F 38.5 °F 30.16 in North 1.2 mph 3.5 mph 68 % 0.00 in 557.0 W/m2 CLR
09:10 48.9 °F 38.4 °F 30.15 in Calm   3.5 mph 67 % 0.00 in 575.0 W/m2 CLR
09:15 48.8 °F 37.9 °F 30.16 in NNE 0.5 mph 4.0 mph 66 % 0.00 in 591.0 W/m2 CLR
09:20 49.8 °F 38.9 °F 30.16 in NNE 3.3 mph 9.2 mph 66 % 0.00 in 608.0 W/m2 CLR
09:25 49.8 °F 38.9 °F 30.16 in NNE 0.4 mph 4.6 mph 66 % 0.00 in 622.0 W/m2 CLR
09:26 49.8 °F 38.9 °F 30.15 in NNE 0.4 mph 4.6 mph 66 % 0.00 in 622.0 W/m2 CLR
09:31 49.4 °F 38.1 °F 30.15 in Calm     65 % 0.00 in 640.0 W/m2 CLR
09:36 49.4 °F 38.1 °F 30.15 in Calm     65 % 0.00 in 656.0 W/m2 CLR
09:41 50.1 °F 38.4 °F 30.15 in Calm     64 % 0.00 in 671.0 W/m2 CLR
09:46 50.8 °F 38.2 °F 30.15 in NE 0.6 mph 1.2 mph 62 % 0.00 in 687.0 W/m2 CLR
09:51 50.2 °F 37.7 °F 30.16 in East 0.1 mph 1.2 mph 62 % 0.00 in 701.0 W/m2 CLR
09:56 50.3 °F 37.4 °F 30.16 in ESE 0.2 mph 3.5 mph 61 % 0.00 in 715.0 W/m2 CLR
10:01 50.7 °F 38.6 °F 30.16 in Calm     63 % 0.00 in 731.0 W/m2 CLR
10:06 51.3 °F 38.3 °F 30.16 in East 0.1 mph 1.2 mph 61 % 0.00 in 742.0 W/m2 CLR
10:11 50.9 °F 37.9 °F 30.16 in Calm     61 % 0.00 in 756.0 W/m2 CLR
10:16 51.2 °F 37.8 °F 30.16 in ESE 0.2 mph 1.2 mph 60 % 0.00 in 770.0 W/m2 CLR
10:21 52.0 °F 39.4 °F 30.16 in NNE 4.7 mph 6.9 mph 62 % 0.00 in 782.0 W/m2 CLR
10:26 52.7 °F 39.2 °F 30.15 in North 0.2 mph 3.5 mph 60 % 0.00 in 793.0 W/m2 CLR
10:31 52.6 °F 38.7 °F 30.16 in NE 1.2 mph 3.5 mph 59 % 0.00 in 805.0 W/m2 CLR
10:36 52.7 °F 38.3 °F 30.16 in NNE 0.3 mph 9.0 mph 58 % 0.00 in 817.0 W/m2 CLR
10:41 53.3 °F 39.3 °F 30.16 in NE 0.9 mph 3.5 mph 59 % 0.00 in 828.0 W/m2 CLR
10:46 52.9 °F 38.1 °F 30.16 in Calm     57 % 0.00 in 838.0 W/m2 CLR
10:51 52.7 °F 37.9 °F 30.16 in Calm     57 % 0.00 in 849.0 W/m2 CLR
10:56 55.0 °F 40.0 °F 30.16 in North 2.5 mph 8.1 mph 57 % 0.00 in 863.0 W/m2 CLR
11:01 53.7 °F 38.4 °F 30.16 in NE 0.1 mph 3.5 mph 56 % 0.00 in 870.0 W/m2 CLR
11:06 53.4 °F 37.6 °F 30.15 in Calm     55 % 0.00 in 881.0 W/m2 CLR
11:11 54.9 °F 39.9 °F 30.15 in North 3.4 mph 8.1 mph 57 % 0.00 in 891.0 W/m2 CLR
11:16 55.0 °F 39.6 °F 30.15 in North 0.3 mph 5.8 mph 56 % 0.00 in 898.0 W/m2 CLR
11:21 54.3 °F 39.4 °F 30.15 in NNE 0.4 mph 2.0 mph 57 % 0.00 in 886.0 W/m2 CLR
11:26 54.4 °F 38.1 °F 30.15 in NNE 0.1 mph 1.2 mph 54 % 0.00 in 914.0 W/m2 CLR
11:31 55.3 °F 39.4 °F 30.15 in Calm   1.2 mph 55 % 0.00 in 925.0 W/m2 CLR
11:36 55.2 °F 38.4 °F 30.15 in North 1.0 mph 7.0 mph 53 % 0.00 in 926.0 W/m2 CLR
11:41 55.5 °F 39.1 °F 30.15 in Calm     54 % 0.00 in 932.0 W/m2 CLR
11:46 56.3 °F 39.4 °F 30.15 in NW 0.3 mph 3.5 mph 53 % 0.00 in 949.0 W/m2 CLR
11:51 56.5 °F 39.6 °F 30.15 in NNE 1.0 mph 4.6 mph 53 % 0.00 in 1005.0 W/m2 CLR
11:56 56.4 °F 39.0 °F 30.16 in Calm     52 % 0.00 in 1042.0 W/m2 CLR
12:01 56.7 °F 38.3 °F 30.16 in NE 0.6 mph 4.0 mph 50 % 0.00 in 962.0 W/m2 CLR
12:06 56.5 °F 38.6 °F 30.16 in East 0.6 mph 3.0 mph 51 % 0.00 in 613.0 W/m2 CLR
12:11 56.0 °F 37.1 °F 30.15 in WNW 0.6 mph 2.3 mph 49 % 0.00 in 677.0 W/m2 FEW
12:16 56.8 °F 39.4 °F 30.14 in Calm     52 % 0.00 in 877.0 W/m2 CLR
12:21 57.9 °F 38.8 °F 30.15 in Calm     49 % 0.00 in 1076.0 W/m2 CLR
12:26 57.4 °F 38.9 °F 30.14 in NE 0.5 mph 4.6 mph 50 % 0.00 in 793.0 W/m2 CLR
12:31 57.9 °F 39.4 °F 30.15 in East 0.5 mph 3.5 mph 50 % 0.00 in 970.0 W/m2 CLR
12:36 57.6 °F 38.6 °F 30.15 in NE 0.1 mph 3.5 mph 49 % 0.00 in 580.0 W/m2 SCT
12:42 57.5 °F 37.9 °F 30.15 in Calm   1.2 mph 48 % 0.00 in 1071.0 W/m2 CLR
12:47 57.5 °F 36.9 °F 30.14 in Calm     46 % 0.00 in 977.0 W/m2 CLR
12:52 58.4 °F 39.8 °F 30.14 in NNW 1.7 mph 3.5 mph 50 % 0.00 in 962.0 W/m2 CLR
12:57 58.8 °F 39.1 °F 30.13 in NNE 3.4 mph 5.0 mph 48 % 0.00 in 1039.0 W/m2 CLR
13:02 58.7 °F 38.5 °F 30.13 in Calm   2.3 mph 47 % 0.00 in 1092.0 W/m2 CLR
13:07 59.0 °F 38.8 °F 30.13 in Calm     47 % 0.00 in 949.0 W/m2 CLR
13:12 59.2 °F 37.3 °F 30.12 in Calm     44 % 0.00 in 1009.0 W/m2 CLR
13:17 59.3 °F 37.4 °F 30.11 in NNE 4.2 mph 8.1 mph 44 % 0.00 in 977.0 W/m2 CLR
13:22 59.4 °F 37.5 °F 30.11 in Calm     44 % 0.00 in 814.0 W/m2 CLR
13:27 60.0 °F 38.6 °F 30.11 in ENE 3.2 mph 6.9 mph 45 % 0.00 in 722.0 W/m2 CLR
13:29 59.9 °F 39.6 °F 30.12 in NNE 2.5 mph 4.6 mph 47 % 0.00 in 703.0 W/m2 FEW
13:34 59.2 °F 37.3 °F 30.11 in North 1.6 mph 2.0 mph 44 % 0.00 in 673.0 W/m2 FEW
13:39 61.1 °F 39.6 °F 30.11 in NNE 5.2 mph 8.1 mph 45 % 0.00 in 860.0 W/m2 CLR
13:44 60.4 °F 37.8 °F 30.11 in NE 1.6 mph 4.6 mph 43 % 0.00 in 912.0 W/m2 CLR
13:49 60.1 °F 38.1 °F 30.11 in Calm     44 % 0.00 in 719.0 W/m2 CLR
13:54 60.2 °F 37.6 °F 30.11 in ESE 0.1 mph   43 % 0.00 in 443.0 W/m2 SCT
13:59 59.8 °F 36.6 °F 30.11 in Calm     42 % 0.00 in 415.0 W/m2 SCT
14:09 60.6 °F 38.0 °F 30.11 in Calm   1.2 mph 43 % 0.00 in 410.0 W/m2 BKN
14:10 60.7 °F 38.1 °F 30.11 in Calm     43 % 0.00 in 422.0 W/m2 BKN
14:15 60.8 °F 37.5 °F 30.11 in West 1.2 mph 3.5 mph 42 % 0.00 in 455.0 W/m2 SCT
14:20 60.8 °F 37.5 °F 30.11 in Calm   1.2 mph 42 % 0.00 in 520.0 W/m2 SCT
14:25 61.0 °F 38.9 °F 30.11 in Calm     44 % 0.00 in 621.0 W/m2 FEW
14:30 61.6 °F 38.9 °F 30.10 in SSW 1.4 mph 3.0 mph 43 % 0.00 in 705.0 W/m2 CLR
14:35 61.4 °F 38.7 °F 30.10 in Calm     43 % 0.00 in 591.0 W/m2 CLR
14:40 61.3 °F 38.6 °F 30.10 in NE 0.5 mph 3.5 mph 43 % 0.00 in 580.0 W/m2 FEW
14:45 61.8 °F 39.1 °F 30.09 in NNW 3.1 mph 4.0 mph 43 % 0.00 in 575.0 W/m2 FEW
14:50 62.8 °F 39.4 °F 30.09 in NNW 3.5 mph 4.6 mph 42 % 0.00 in 636.0 W/m2 CLR
14:55 62.8 °F 40.0 °F 30.08 in Calm     43 % 0.00 in 508.0 W/m2 FEW
15:00 62.2 °F 38.2 °F 30.08 in North 1.4 mph 4.6 mph 41 % 0.00 in 540.0 W/m2 FEW
15:05 61.9 °F 37.3 °F 30.08 in Calm     40 % 0.00 in 564.0 W/m2 FEW
15:10 62.2 °F 38.8 °F 30.08 in NNE 1.4 mph 3.5 mph 42 % 0.00 in 566.0 W/m2 FEW
15:15 62.5 °F 39.1 °F 30.08 in NNE 3.3 mph 4.0 mph 42 % 0.00 in 659.0 W/m2 CLR
15:20 62.5 °F 37.8 °F 30.08 in Calm   1.2 mph 40 % 0.00 in 550.0 W/m2 FEW
15:21 62.4 °F 37.7 °F 30.08 in Calm     40 % 0.00 in 536.0 W/m2 FEW
15:26 62.7 °F 39.3 °F 30.08 in Calm     42 % 0.00 in 469.0 W/m2 FEW
15:31 63.0 °F 39.5 °F 30.08 in NNE 2.0 mph 3.5 mph 42 % 0.00 in 531.0 W/m2 FEW
15:36 63.7 °F 40.8 °F 30.08 in North 0.1 mph 1.2 mph 43 % 0.00 in 459.0 W/m2 FEW
15:41 63.8 °F 40.3 °F 30.08 in Calm     42 % 0.00 in 677.0 W/m2 CLR
15:46 63.9 °F 39.7 °F 30.08 in NE 2.3 mph 3.5 mph 41 % 0.00 in 510.0 W/m2 CLR
15:51 63.5 °F 39.4 °F 30.08 in North 0.9 mph 3.5 mph 41 % 0.00 in 427.0 W/m2 FEW
15:56 64.3 °F 40.1 °F 30.07 in NW 1.1 mph 3.5 mph 41 % 0.00 in 759.0 W/m2 CLR
16:01 64.0 °F 40.4 °F 30.07 in Calm     42 % 0.00 in 714.0 W/m2 CLR
16:06 64.6 °F 39.7 °F 30.07 in WNW 4.7 mph 4.7 mph 40 % 0.00 in 594.0 W/m2 CLR
16:11 64.6 °F 38.4 °F 30.07 in Calm     38 % 0.00 in 557.0 W/m2 CLR
16:16 64.3 °F 38.1 °F 30.07 in Calm   3.5 mph 38 % 0.00 in 443.0 W/m2 SCT
16:21 64.3 °F 38.8 °F 30.07 in WNW 3.2 mph 3.5 mph 39 % 0.00 in 701.0 W/m2 CLR
16:26 64.9 °F 38.7 °F 30.07 in Calm     38 % 0.00 in 406.0 W/m2 CLR
16:31 64.2 °F 38.7 °F 30.07 in WNW 0.1 mph 2.0 mph 39 % 0.00 in 397.0 W/m2 FEW
16:36 64.2 °F 40.0 °F 30.07 in WNW 0.8 mph 1.2 mph 41 % 0.00 in 394.0 W/m2 FEW
16:41 64.6 °F 40.4 °F 30.07 in NNW 0.7 mph 2.0 mph 41 % 0.00 in 427.0 W/m2 FEW
16:46 64.8 °F 38.6 °F 30.06 in Calm   3.5 mph 38 % 0.00 in 476.0 W/m2 CLR
16:51 64.7 °F 39.8 °F 30.07 in NNE 0.5 mph 3.5 mph 40 % 0.00 in 506.0 W/m2 CLR
16:52 64.6 °F 40.4 °F 30.07 in NNE 0.1 mph   41 % 0.00 in 526.0 W/m2 CLR
16:57 64.1 °F 39.3 °F 30.07 in Calm     40 % 0.00 in 410.0 W/m2 CLR
17:02 64.7 °F 41.1 °F 30.06 in NNW 0.2 mph 1.0 mph 42 % 0.00 in 378.0 W/m2 CLR
17:07 64.7 °F 40.4 °F 30.06 in NNW 0.3 mph 1.2 mph 41 % 0.00 in 362.0 W/m2 CLR
17:10 65.1 °F 40.2 °F 30.06 in NNW 0.3 mph 2.3 mph 40 % 0.00 in 413.0 W/m2 CLR
17:15 65.4 °F 40.4 °F 30.07 in WNW 1.0 mph 3.5 mph 40 % 0.00 in 490.0 W/m2 CLR
17:20 65.9 °F 38.9 °F 30.07 in North 0.1 mph 2.3 mph 37 % 0.00 in 476.0 W/m2 CLR
17:25 66.0 °F 41.0 °F 30.07 in Calm   1.2 mph 40 % 0.00 in 468.0 W/m2 CLR
17:30 65.6 °F 40.0 °F 30.07 in Calm   1.2 mph 39 % 0.00 in 415.0 W/m2 CLR
17:35 65.5 °F 39.2 °F 30.06 in Calm   1.2 mph 38 % 0.00 in 350.0 W/m2 CLR
17:40 65.2 °F 38.9 °F 30.07 in WNW 0.9 mph 1.2 mph 38 % 0.00 in 144.0 W/m2 BKN
17:45 65.3 °F 39.0 °F 30.06 in WNW 0.5 mph 3.5 mph 38 % 0.00 in 139.0 W/m2 BKN
17:50 65.2 °F 38.3 °F 30.06 in NW 0.2 mph 3.5 mph 37 % 0.00 in 244.0 W/m2 FEW
17:55 65.4 °F 38.4 °F 30.07 in Calm     37 % 0.00 in 204.0 W/m2 FEW
18:00 64.8 °F 37.9 °F 30.07 in Calm     37 % 0.00 in 192.0 W/m2 FEW
18:05 65.2 °F 40.3 °F 30.07 in Calm     40 % 0.00 in 183.0 W/m2 FEW
18:10 65.2 °F 38.3 °F 30.07 in SSW 1.2 mph 2.0 mph 37 % 0.00 in 195.0 W/m2 FEW
18:15 65.2 °F 38.9 °F 30.07 in Calm     38 % 0.00 in 193.0 W/m2 FEW
18:21 65.2 °F 39.6 °F 30.07 in SSW 0.2 mph 1.0 mph 39 % 0.00 in 190.0 W/m2 CLR
18:26 65.1 °F 39.5 °F 30.07 in Calm   1.2 mph 39 % 0.00 in 113.0 W/m2 SCT
18:31 64.7 °F 39.2 °F 30.07 in Calm     39 % 0.00 in 100.0 W/m2 SCT
18:36 64.5 °F 39.6 °F 30.07 in Calm     40 % 0.00 in 100.0 W/m2 SCT
18:41 64.4 °F 40.2 °F 30.07 in SSE 0.3 mph 2.3 mph 41 % 0.00 in 98.0 W/m2 SCT
18:46 64.2 °F 40.0 °F 30.07 in South 0.3 mph 3.5 mph 41 % 0.00 in 90.0 W/m2 SCT
18:51 64.1 °F 39.3 °F 30.07 in South 0.6 mph 3.5 mph 40 % 0.00 in 81.0 W/m2 SCT
18:56 64.0 °F 39.2 °F 30.07 in South 2.7 mph 5.8 mph 40 % 0.00 in 72.0 W/m2 SCT
19:01 64.3 °F 39.4 °F 30.07 in South 1.7 mph 3.5 mph 40 % 0.00 in 63.0 W/m2 SCT
19:06 64.0 °F 39.2 °F 30.07 in South 1.1 mph 4.6 mph 40 % 0.00 in 53.0 W/m2 SCT
19:11 63.9 °F 39.1 °F 30.07 in South 3.0 mph 6.0 mph 40 % 0.00 in 47.0 W/m2 SCT
19:16 63.7 °F 39.5 °F 30.07 in South 1.2 mph 3.5 mph 41 % 0.00 in 37.0 W/m2 SCT
19:21 63.4 °F 39.9 °F 30.07 in Calm     42 % 0.00 in 28.0 W/m2 SCT
19:26 63.2 °F 39.7 °F 30.07 in Calm     42 % 0.00 in 23.0 W/m2 SCT
19:31 62.9 °F 40.0 °F 30.07 in Calm     43 % 0.00 in 18.0 W/m2 SCT
19:36 62.7 °F 39.3 °F 30.07 in Calm     42 % 0.00 in 12.0 W/m2 BKN
19:41 62.5 °F 39.1 °F 30.08 in Calm     42 % 0.00 in 7.0 W/m2 BKN
19:46 62.3 °F 39.5 °F 30.08 in Calm     43 % 0.00 in 0.0 W/m2 BKN
19:51 61.8 °F 39.6 °F 30.08 in Calm     44 % 0.00 in 0.0 W/m2 BKN
19:56 61.7 °F 39.6 °F 30.08 in Calm     44 % 0.00 in 0.0 W/m2 BKN
20:01 61.4 °F 39.3 °F 30.08 in Calm     44 % 0.00 in 0.0 W/m2 BKN
20:06 61.2 °F 39.1 °F 30.08 in Calm     44 % 0.00 in 0.0 W/m2 BKN
20:11 61.1 °F 39.6 °F 30.08 in Calm     45 % 0.00 in 0.0 W/m2 BKN
20:16 60.8 °F 39.3 °F 30.09 in Calm     45 % 0.00 in 0.0 W/m2 BKN
20:21 60.7 °F 39.8 °F 30.09 in Calm     46 % 0.00 in 0.0 W/m2 BKN
20:26 60.4 °F 39.5 °F 30.09 in Calm     46 % 0.00 in 0.0 W/m2 BKN
20:31 60.3 °F 39.4 °F 30.09 in Calm     46 % 0.00 in 0.0 W/m2 BKN
20:36 59.8 °F 40.1 °F 30.09 in Calm     48 % 0.00 in 0.0 W/m2 BKN
20:41 59.7 °F 40.0 °F 30.09 in Calm     48 % 0.00 in 0.0 W/m2 BKN
20:46 59.1 °F 39.9 °F 30.09 in Calm     49 % 0.00 in 0.0 W/m2 BKN
20:51 58.7 °F 39.6 °F 30.09 in Calm     49 % 0.00 in 0.0 W/m2 BKN
20:56 58.4 °F 39.8 °F 30.09 in Calm     50 % 0.00 in 0.0 W/m2 BKN
21:01 58.1 °F 40.1 °F 30.09 in Calm     51 % 0.00 in 0.0 W/m2 BKN
21:06 57.9 °F 40.9 °F 30.10 in Calm     53 % 0.00 in 0.0 W/m2 BKN
21:11 57.4 °F 41.4 °F 30.10 in Calm     55 % 0.00 in 0.0 W/m2 BKN
21:16 57.2 °F 42.1 °F 30.10 in Calm     57 % 0.00 in 0.0 W/m2 BKN
21:17 57.2 °F 42.5 °F 30.10 in Calm     58 % 0.00 in 0.0 W/m2 BKN
21:22 57.0 °F 42.4 °F 30.10 in Calm     58 % 0.00 in 0.0 W/m2 BKN
21:27 56.7 °F 41.6 °F 30.10 in Calm     57 % 0.00 in 0.0 W/m2 BKN
21:32 56.9 °F 42.3 °F 30.11 in Calm     58 % 0.00 in 0.0 W/m2 BKN
21:37 56.6 °F 41.5 °F 30.10 in Calm     57 % 0.00 in 0.0 W/m2 BKN
21:42 56.3 °F 41.3 °F 30.11 in Calm     57 % 0.00 in 0.0 W/m2 BKN
21:47 56.2 °F 42.1 °F 30.11 in Calm     59 % 0.00 in 0.0 W/m2 BKN
21:52 56.1 °F 42.0 °F 30.11 in Calm     59 % 0.00 in 0.0 W/m2 BKN
21:57 56.2 °F 42.9 °F 30.11 in Calm     61 % 0.00 in 0.0 W/m2 BKN
22:02 56.1 °F 41.5 °F 30.11 in Calm     58 % 0.00 in 0.0 W/m2 BKN
22:07 56.4 °F 41.3 °F 30.11 in Calm     57 % 0.00 in 0.0 W/m2 BKN
22:12 56.2 °F 41.6 °F 30.11 in Calm     58 % 0.00 in 0.0 W/m2 BKN
22:17 56.2 °F 41.6 °F 30.11 in Calm     58 % 0.00 in 0.0 W/m2 BKN
22:22 56.3 °F 42.1 °F 30.11 in Calm     59 % 0.00 in 0.0 W/m2 BKN
22:27 56.2 °F 42.5 °F 30.11 in Calm     60 % 0.00 in 0.0 W/m2 BKN
22:32 56.2 °F 42.5 °F 30.12 in Calm     60 % 0.00 in 0.0 W/m2 BKN
22:37 56.2 °F 42.5 °F 30.12 in Calm     60 % 0.00 in 0.0 W/m2 BKN
22:42 56.0 °F 42.7 °F 30.12 in Calm     61 % 0.00 in 0.0 W/m2 BKN
22:47 55.7 °F 42.5 °F 30.12 in Calm     61 % 0.00 in 0.0 W/m2 BKN
22:52 55.8 °F 42.5 °F 30.12 in Calm     61 % 0.00 in 0.0 W/m2 BKN
22:57 55.9 °F 42.6 °F 30.12 in Calm     61 % 0.00 in 0.0 W/m2 BKN
23:02 55.7 °F 42.9 °F 30.12 in Calm     62 % 0.00 in 0.0 W/m2 BKN
23:07 55.5 °F 43.1 °F 30.12 in Calm     63 % 0.00 in 0.0 W/m2 BKN
23:12 55.2 °F 42.8 °F 30.12 in Calm     63 % 0.00 in 0.0 W/m2 BKN
23:17 55.0 °F 43.0 °F 30.11 in Calm     64 % 0.00 in 0.0 W/m2 BKN
23:22 55.1 °F 43.5 °F 30.12 in Calm     65 % 0.00 in 0.0 W/m2 BKN
23:27 54.8 °F 43.3 °F 30.12 in Calm     65 % 0.00 in 0.0 W/m2 BKN
23:28 54.8 °F 43.3 °F 30.12 in Calm     65 % 0.00 in 0.0 W/m2 BKN
23:33 54.4 °F 43.3 °F 30.12 in Calm     66 % 0.00 in 0.0 W/m2 BKN
23:38 54.2 °F 43.5 °F 30.12 in Calm     67 % 0.00 in 0.0 W/m2 BKN
23:43 53.9 °F 43.2 °F 30.12 in Calm     67 % 0.00 in 0.0 W/m2 BKN
23:48 53.5 °F 43.2 °F 30.12 in Calm     68 % 0.00 in 0.0 W/m2 BKN
23:53 53.1 °F 43.2 °F 30.12 in Calm     69 % 0.00 in 0.0 W/m2 BKN
23:58 53.1 °F 43.6 °F 30.12 in Calm     70 % 0.00 in 0.0 W/m2 BKN
Air Products Campus Weather
Compliments of Weather Underground - 3.5 mb